Time;durP1;ratioP1;P1;durP2;ratioP2;P2;SDS_P1;SDS_P2;PMS_P1;PMS_P2;Temp;Humidity;BMP_temperature;BMP_pressure;BME280_temperature;BME280_humidity;BME280_pressure;Samples;Min_cycle;Max_cycle;Signal;HPM_P1;HPM_P2
2022/05/10 00:01:01;;;;;;;14.80;4.07;;;;;;;20.73;44.35;100873.66;5091346;28;20020;-74
2022/05/10 00:03:37;;;;;;;19.08;3.25;;;;;;;20.55;44.82;100877.38;5093768;28;20073;-74
2022/05/10 00:06:05;;;;;;;13.30;3.83;;;;;;;20.57;44.63;100880.59;5095281;28;20107;-74
2022/05/10 00:08:32;;;;;;;9.88;3.40;;;;;;;20.63;44.59;100881.84;5093851;28;20417;-74
2022/05/10 00:10:58;;;;;;;14.45;3.53;;;;;;;20.55;44.75;100892.06;5094878;28;20479;-82
2022/05/10 00:13:27;;;;;;;17.13;3.95;;;;;;;20.08;45.98;100887.03;5095078;28;20103;-74
2022/05/10 00:15:53;;;;;;;16.33;3.70;;;;;;;20.34;45.29;100889.00;5095031;28;20086;-83
2022/05/10 00:18:21;;;;;;;15.65;3.47;;;;;;;20.40;44.99;100885.53;5095127;28;20142;-75
2022/05/10 00:20:47;;;;;;;14.68;3.38;;;;;;;20.19;45.45;100882.44;5094463;28;20506;-75
2022/05/10 00:23:13;;;;;;;11.55;3.53;;;;;;;20.07;45.68;100883.47;5094764;28;20028;-74
2022/05/10 00:25:39;;;;;;;12.90;3.40;;;;;;;20.27;45.24;100883.34;5094894;28;20366;-75
2022/05/10 00:28:05;;;;;;;16.95;3.30;;;;;;;20.39;44.92;100886.69;5094679;28;20477;-75
2022/05/10 00:30:31;;;;;;;16.50;3.47;;;;;;;20.44;44.88;100888.38;5094417;28;20055;-74
2022/05/10 00:32:57;;;;;;;10.95;3.05;;;;;;;20.46;44.96;100880.47;5094655;28;20028;-74
2022/05/10 00:35:27;;;;;;;13.75;4.18;;;;;;;20.24;45.29;100879.34;5094376;28;20476;-74
2022/05/10 00:37:57;;;;;;;12.32;4.03;;;;;;;20.21;45.44;100888.41;5094598;28;20454;-74
2022/05/10 00:40:31;;;;;;;17.80;3.83;;;;;;;20.25;45.19;100875.38;5094528;28;20115;-75
2022/05/10 00:43:23;;;;;;;16.23;3.47;;;;;;;20.19;45.33;100860.25;5094428;28;20089;-74
2022/05/10 00:46:01;;;;;;;10.93;3.20;;;;;;;20.11;45.39;100864.13;5086131;28;20437;-74
2022/05/10 00:48:30;;;;;;;14.63;3.55;;;;;;;20.14;45.61;100857.81;5094424;28;20065;-74
2022/05/10 00:51:11;;;;;;;15.55;3.72;;;;;;;20.12;45.38;100854.59;5094129;28;20024;-74
2022/05/10 00:53:58;;;;;;;15.77;4.15;;;;;;;20.25;45.08;100853.19;5093986;28;20032;-73
2022/05/10 00:56:32;;;;;;;16.27;5.10;;;;;;;20.27;45.00;100856.41;5094459;28;20035;-74
2022/05/10 00:59:06;;;;;;;13.57;3.30;;;;;;;20.12;45.44;100854.59;5092795;28;20056;-74
2022/05/10 01:01:34;;;;;;;13.68;3.88;;;;;;;20.15;45.29;100853.84;5094238;28;20032;-74
2022/05/10 01:04:25;;;;;;;16.95;4.45;;;;;;;20.30;44.95;100863.16;5093894;28;20028;-74
2022/05/10 01:07:00;;;;;;;18.85;4.25;;;;;;;20.56;44.38;100857.59;5094024;28;20409;-74
2022/05/10 01:09:36;;;;;;;12.95;4.00;;;;;;;20.44;44.47;100857.84;5093943;28;20024;-75
2022/05/10 01:12:07;;;;;;;16.55;4.32;;;;;;;20.32;44.74;100853.28;5092624;28;20027;-74
2022/05/10 01:15:04;;;;;;;13.73;4.13;;;;;;;20.23;45.13;100844.44;5092583;28;20110;-74
2022/05/10 01:17:29;;;;;;;15.57;3.63;;;;;;;20.24;45.13;100848.81;5090644;28;20032;-74
2022/05/10 01:19:55;;;;;;;14.27;3.75;;;;;;;20.22;45.10;100849.19;5093561;28;20508;-75
2022/05/10 01:22:30;;;;;;;13.88;4.15;;;;;;;20.25;45.02;100847.63;5093782;28;20024;-74
2022/05/10 01:25:27;;;;;;;16.63;4.63;;;;;;;20.27;44.86;100850.84;5093250;28;20055;-74
2022/05/10 01:28:21;;;;;;;12.02;4.63;;;;;;;20.32;44.63;100847.72;5059148;28;20048;-74
2022/05/10 01:30:47;;;;;;;15.38;4.15;;;;;;;20.18;44.85;100845.59;5092251;28;20036;-74
2022/05/10 01:33:31;;;;;;;13.05;3.65;;;;;;;20.24;44.83;100840.50;5093041;28;20039;-74
2022/05/10 01:36:07;;;;;;;14.88;4.00;;;;;;;20.09;45.10;100839.50;5093589;28;20394;-75
2022/05/10 01:39:04;;;;;;;19.58;4.50;;;;;;;20.04;45.14;100833.50;5093168;28;20024;-74
2022/05/10 01:41:46;;;;;;;17.73;3.67;;;;;;;20.10;44.95;100827.25;5093424;28;20372;-74
2022/05/10 01:44:38;;;;;;;11.30;3.13;;;;;;;20.24;44.37;100823.84;5092966;28;20032;-74
2022/05/10 01:47:24;;;;;;;12.15;3.65;;;;;;;20.24;44.48;100823.84;5093342;28;20032;-75
2022/05/10 01:49:55;;;;;;;19.50;3.88;;;;;;;20.13;44.75;100826.50;5061668;28;20067;-75
2022/05/10 01:52:30;;;;;;;15.27;3.13;;;;;;;20.10;44.70;100813.38;5093127;28;20115;-74
2022/05/10 01:55:04;;;;;;;11.32;4.57;;;;;;;20.07;44.75;100813.31;5092772;28;20030;-74
2022/05/10 01:57:32;;;;;;;18.42;3.95;;;;;;;20.08;44.71;100807.38;5093038;28;20054;-74
2022/05/10 02:00:24;;;;;;;13.15;3.65;;;;;;;20.04;44.89;100806.56;5092898;28;20024;-74
2022/05/10 02:02:56;;;;;;;39.75;4.15;;;;;;;19.90;44.96;100804.38;5093055;28;20433;-75
2022/05/10 02:05:47;;;;;;;12.05;3.78;;;;;;;19.97;44.83;100795.38;5092937;28;20032;-74
2022/05/10 02:08:39;;;;;;;14.35;4.20;;;;;;;19.99;44.77;100806.06;5091633;28;20427;-75
2022/05/10 02:11:12;;;;;;;13.60;3.03;;;;;;;19.99;44.74;100811.63;5085569;28;20032;-75
2022/05/10 02:13:47;;;;;;;19.10;4.20;;;;;;;19.82;45.16;100801.88;5091305;28;20035;-74
2022/05/10 02:16:35;;;;;;;14.27;4.10;;;;;;;19.80;45.14;100793.94;5092738;28;20034;-74
2022/05/10 02:19:16;;;;;;;13.32;3.17;;;;;;;19.87;44.85;100791.25;5092646;28;20024;-75
2022/05/10 02:21:51;;;;;;;13.90;3.17;;;;;;;19.88;44.83;100797.63;5092568;28;20024;-74
2022/05/10 02:24:37;;;;;;;16.27;3.47;;;;;;;19.90;44.81;100796.06;5092036;28;20073;-74
2022/05/10 02:27:15;;;;;;;17.65;3.90;;;;;;;19.78;45.00;100793.50;5092095;28;20040;-78
2022/05/10 02:29:52;;;;;;;13.05;3.72;;;;;;;19.88;44.76;100792.88;5091189;28;20028;-74
2022/05/10 02:35:10;;;;;;;13.02;3.40;;;;;;;19.90;44.71;100786.94;5052216;28;20039;-75
2022/05/10 02:37:36;;;;;;;14.25;3.60;;;;;;;19.88;44.75;100787.34;5052215;28;20044;-74
2022/05/10 02:40:04;;;;;;;12.43;3.47;;;;;;;19.89;44.72;100788.13;5052003;28;20045;-74
2022/05/10 02:42:30;;;;;;;14.15;3.63;;;;;;;19.94;44.61;100791.34;5052439;28;20032;-74
2022/05/10 02:44:56;;;;;;;10.90;3.17;;;;;;;19.87;44.66;100791.25;5090371;28;20028;-74
2022/05/10 02:47:49;;;;;;;15.13;3.45;;;;;;;19.76;45.06;100798.63;5093023;28;20053;-74
2022/05/10 02:50:23;;;;;;;11.25;2.88;;;;;;;19.80;44.80;100791.19;5090374;28;20165;-74
2022/05/10 02:52:50;;;;;;;15.27;3.80;;;;;;;19.75;44.96;100791.50;5092352;28;20463;-79
2022/05/10 02:55:21;;;;;;;13.27;3.80;;;;;;;19.86;44.84;100781.34;5080069;28;20130;-74
2022/05/10 02:57:51;;;;;;;18.73;3.38;;;;;;;19.89;44.42;100775.06;5092729;28;20090;-74
2022/05/10 03:00:19;;;;;;;12.23;3.75;;;;;;;19.86;44.53;100784.09;5092769;28;20036;-73
2022/05/10 03:02:48;;;;;;;12.35;4.10;;;;;;;19.80;44.97;100777.31;5092484;28;20032;-74
2022/05/10 03:05:14;;;;;;;18.20;3.90;;;;;;;19.79;44.75;100781.22;5092753;28;20024;-73
2022/05/10 03:07:40;;;;;;;22.83;4.15;;;;;;;19.78;44.81;100795.47;5092706;28;20065;-74
2022/05/10 03:10:07;;;;;;;14.82;3.70;;;;;;;19.80;44.68;100785.63;5092776;28;20441;-74
2022/05/10 03:12:33;;;;;;;14.43;4.55;;;;;;;19.80;44.63;100793.94;5092329;28;20424;-74
2022/05/10 03:14:58;;;;;;;19.40;3.90;;;;;;;19.78;44.65;100779.63;5092562;28;20028;-74
2022/05/10 03:17:25;;;;;;;10.93;3.22;;;;;;;19.77;44.72;100785.56;5092551;28;20528;-74
2022/05/10 03:19:51;;;;;;;19.23;4.00;;;;;;;19.84;44.38;100780.91;5092364;28;20505;-74
2022/05/10 03:22:17;;;;;;;11.10;3.10;;;;;;;19.84;44.31;100780.91;5092500;28;20028;-74
2022/05/10 03:24:43;;;;;;;9.95;3.10;;;;;;;19.79;44.47;100781.22;5092120;28;20032;-74
2022/05/10 03:27:11;;;;;;;9.98;2.80;;;;;;;19.83;44.38;100773.78;5092451;28;20058;-74
2022/05/10 03:29:39;;;;;;;21.38;3.88;;;;;;;19.71;44.66;100778.75;5092452;28;20035;-73
2022/05/10 03:32:05;;;;;;;15.48;4.30;;;;;;;19.54;44.93;100782.81;5092178;28;20051;-74
2022/05/10 03:37:15;;;;;;;9.90;2.83;;;;;;;19.67;44.60;100785.03;5093126;28;20480;-74
2022/05/10 03:39:41;;;;;;;13.07;2.83;;;;;;;19.60;44.78;100782.16;5095210;28;20114;-73
2022/05/10 03:42:07;;;;;;;18.63;4.65;;;;;;;19.66;44.54;100788.19;5096566;28;20024;-74
2022/05/10 03:44:34;;;;;;;12.30;3.78;;;;;;;19.58;44.87;100780.94;5096092;28;20432;-74
2022/05/10 03:47:00;;;;;;;21.02;4.55;;;;;;;19.65;44.45;100776.31;5096346;28;20390;-74
2022/05/10 03:49:27;;;;;;;14.95;3.63;;;;;;;19.66;44.58;100766.81;5096335;28;20036;-74
2022/05/10 03:51:54;;;;;;;9.70;3.13;;;;;;;19.60;44.71;100775.81;5096304;28;20031;-74
2022/05/10 03:54:21;;;;;;;17.08;5.07;;;;;;;19.56;44.76;100766.59;5095942;28;20032;-74
2022/05/10 03:56:47;;;;;;;10.68;3.47;;;;;;;19.64;44.47;100765.56;5096201;28;20031;-74
2022/05/10 03:59:12;;;;;;;15.05;5.18;;;;;;;19.60;44.75;100767.50;5096046;28;20032;-74
2022/05/10 04:01:38;;;;;;;12.52;3.53;;;;;;;19.57;44.74;100762.69;5096267;28;20467;-74
2022/05/10 04:04:04;;;;;;;16.52;3.20;;;;;;;19.53;44.78;100762.63;5095754;28;20481;-74
2022/05/10 04:06:30;;;;;;;8.68;3.22;;;;;;;19.52;44.83;100760.22;5095978;28;20062;-74
2022/05/10 04:08:56;;;;;;;7.50;3.22;;;;;;;19.56;44.67;100769.38;5095956;28;20080;-74
2022/05/10 04:11:22;;;;;;;12.35;3.05;;;;;;;19.50;44.71;100768.91;5095899;28;20115;-74
2022/05/10 04:13:47;;;;;;;15.80;4.20;;;;;;;19.41;45.09;100768.38;5095579;28;20032;-74
2022/05/10 04:16:13;;;;;;;15.35;3.22;;;;;;;19.23;45.38;100761.75;5095795;28;20043;-74
2022/05/10 04:18:39;;;;;;;10.45;3.78;;;;;;;19.13;45.60;100766.75;5095688;28;20530;-74
2022/05/10 04:21:05;;;;;;;16.45;4.45;;;;;;;19.22;45.42;100774.81;5095741;28;20031;-85
2022/05/10 04:23:31;;;;;;;18.50;3.60;;;;;;;19.38;44.97;100767.16;5095539;28;20028;-74
2022/05/10 04:26:08;;;;;;;13.10;2.92;;;;;;;19.38;45.07;100771.88;5095788;28;20032;-73
2022/05/10 04:28:35;;;;;;;16.92;3.58;;;;;;;19.35;45.06;100776.22;5095479;28;20125;-73
2022/05/10 04:31:01;;;;;;;12.63;3.08;;;;;;;19.39;44.93;100765.97;5095562;28;20035;-74
2022/05/10 04:33:26;;;;;;;8.48;3.00;;;;;;;19.31;45.06;100775.34;5095181;28;20497;-74
2022/05/10 04:35:52;;;;;;;10.82;4.35;;;;;;;19.32;44.97;100771.41;5095456;28;20043;-74
2022/05/10 04:38:18;;;;;;;12.10;2.78;;;;;;;19.01;45.75;100769.69;5095503;28;20031;-74
2022/05/10 04:43:29;;;;;;;16.58;3.63;;;;;;;19.33;45.10;100766.66;5095119;28;20587;-74
2022/05/10 04:45:55;;;;;;;17.35;4.35;;;;;;;19.38;44.80;100766.34;5095366;28;20032;-75
2022/05/10 04:48:21;;;;;;;12.63;3.28;;;;;;;19.19;45.25;100770.00;5095157;28;20026;-73
2022/05/10 04:50:47;;;;;;;12.90;3.28;;;;;;;19.25;45.08;100762.97;5095199;28;20058;-74
2022/05/10 04:53:13;;;;;;;11.60;3.30;;;;;;;19.28;45.01;100767.00;5095008;28;20024;-73
2022/05/10 04:55:39;;;;;;;13.38;3.97;;;;;;;19.32;44.95;100765.84;5095159;28;20460;-74
2022/05/10 04:58:04;;;;;;;16.70;4.47;;;;;;;19.23;45.21;100758.97;5095085;28;20024;-74
2022/05/10 05:00:30;;;;;;;17.65;3.78;;;;;;;19.22;45.11;100763.72;5095002;28;20103;-74
2022/05/10 05:02:56;;;;;;;12.98;3.58;;;;;;;19.28;45.06;100767.78;5094348;28;20024;-74
2022/05/10 05:05:22;;;;;;;14.95;3.60;;;;;;;19.29;44.96;100768.59;5094967;28;20034;-73
2022/05/10 05:07:48;;;;;;;17.05;4.07;;;;;;;19.35;45.06;100769.88;5094735;28;20035;-74
2022/05/10 05:10:14;;;;;;;14.35;2.88;;;;;;;19.38;45.05;100760.81;5094870;28;20436;-74
2022/05/10 05:12:39;;;;;;;15.38;3.75;;;;;;;19.48;44.69;100756.59;5094525;28;20549;-74
2022/05/10 05:15:09;;;;;;;21.98;4.70;;;;;;;19.47;45.00;100763.31;5094666;28;20387;-74
2022/05/10 05:17:35;;;;;;;14.25;3.22;;;;;;;19.43;44.90;100762.47;5093363;28;20078;-72
2022/05/10 05:20:01;;;;;;;13.05;4.03;;;;;;;19.44;45.03;100756.56;5094444;28;20418;-74
2022/05/10 05:22:27;;;;;;;11.48;2.85;;;;;;;19.44;45.04;100755.75;5094278;28;20036;-72
2022/05/10 05:24:53;;;;;;;11.20;3.63;;;;;;;19.41;45.26;100760.06;5094501;28;20026;-74
2022/05/10 05:27:19;;;;;;;17.15;2.95;;;;;;;19.65;44.76;100764.44;5094129;28;20059;-75
2022/05/10 05:29:46;;;;;;;17.48;3.67;;;;;;;19.64;44.83;100757.25;5094438;28;20078;-73
2022/05/10 05:32:13;;;;;;;11.02;2.72;;;;;;;19.61;44.94;100764.34;5094097;28;20055;-73
2022/05/10 05:34:39;;;;;;;14.68;3.75;;;;;;;19.67;44.88;100756.53;5094403;28;20028;-72
2022/05/10 05:39:49;;;;;;;14.75;3.53;;;;;;;19.59;45.03;100757.59;5094197;28;20039;-77
2022/05/10 05:42:14;;;;;;;12.73;3.22;;;;;;;19.66;44.77;100763.25;5094337;28;20028;-84
2022/05/10 05:44:41;;;;;;;10.30;2.47;;;;;;;19.63;44.74;100761.22;5093062;28;20032;-79
2022/05/10 05:47:07;;;;;;;15.75;4.10;;;;;;;19.46;45.12;100761.72;5094384;28;20034;-85
2022/05/10 05:49:32;;;;;;;14.68;3.38;;;;;;;19.52;45.00;100746.38;5081420;28;20025;-74
2022/05/10 05:52:00;;;;;;;11.38;3.58;;;;;;;19.56;44.75;100749.97;5074233;28;20036;-74
2022/05/10 05:54:26;;;;;;;21.75;3.55;;;;;;;19.49;45.07;100752.66;5092836;28;20032;-74
2022/05/10 05:57:10;;;;;;;16.80;3.65;;;;;;;19.46;44.88;100750.63;5072184;28;20039;-74
2022/05/10 05:59:36;;;;;;;17.08;3.80;;;;;;;19.51;44.84;100753.09;5073202;28;20036;-76
2022/05/10 06:02:02;;;;;;;11.90;3.58;;;;;;;19.49;44.78;100755.41;5073163;28;20043;-86
2022/05/10 06:04:27;;;;;;;8.75;3.15;;;;;;;19.58;44.92;100756.00;5094052;28;20074;-74
2022/05/10 06:06:53;;;;;;;15.25;3.83;;;;;;;19.62;45.00;100763.19;5093978;28;20036;-83
2022/05/10 06:09:22;;;;;;;13.40;3.38;;;;;;;19.77;44.75;100755.06;5093735;28;20042;-75
2022/05/10 06:11:49;;;;;;;11.83;3.40;;;;;;;19.85;44.78;100757.56;5092314;28;20032;-75
2022/05/10 06:14:14;;;;;;;11.18;2.30;;;;;;;19.83;45.13;100753.56;5093379;28;20298;-74
2022/05/10 06:16:41;;;;;;;12.80;3.30;;;;;;;19.92;45.02;100737.44;5093903;28;20027;-74
2022/05/10 06:19:13;;;;;;;13.07;3.25;;;;;;;20.03;44.87;100748.69;5092118;28;20104;-75
2022/05/10 06:21:41;;;;;;;17.45;4.00;;;;;;;20.12;44.77;100749.19;5093736;28;20028;-88
2022/05/10 06:24:08;;;;;;;13.65;3.83;;;;;;;20.30;44.61;100743.84;5093568;28;20031;-74
2022/05/10 06:26:33;;;;;;;15.27;3.47;;;;;;;20.26;44.78;100757.69;5093392;28;20035;-74
2022/05/10 06:28:59;;;;;;;17.73;3.83;;;;;;;20.42;44.58;100741.63;5093125;28;20032;-74
2022/05/10 06:31:24;;;;;;;11.70;3.92;;;;;;;20.44;44.54;100749.59;5053147;28;20037;-73
2022/05/10 06:33:50;;;;;;;13.40;2.60;;;;;;;20.58;44.39;100740.63;5052999;28;20060;-74
2022/05/10 06:36:16;;;;;;;12.13;3.58;;;;;;;20.32;44.83;100744.28;5052925;28;20531;-74
2022/05/10 06:38:41;;;;;;;17.02;3.45;;;;;;;20.52;44.40;100745.72;5062810;28;20475;-74
2022/05/10 06:41:07;;;;;;;14.15;3.33;;;;;;;20.54;44.35;100742.56;5070110;28;20052;-74
2022/05/10 06:43:38;;;;;;;15.40;4.65;;;;;;;20.72;44.39;100715.78;5089872;28;20036;-73
2022/05/10 06:46:10;;;;;;;12.35;4.30;;;;;;;20.83;43.79;100738.88;5080960;28;20423;-74
2022/05/10 06:48:36;;;;;;;14.10;2.95;;;;;;;21.17;43.13;100747.94;5083381;28;20130;-74
2022/05/10 06:51:09;;;;;;;13.32;3.22;;;;;;;21.09;43.48;100734.38;5091564;28;20126;-74
2022/05/10 06:53:36;;;;;;;19.08;4.03;;;;;;;21.41;42.82;100738.22;5091498;28;20440;-82
2022/05/10 06:56:03;;;;;;;10.90;3.20;;;;;;;21.47;42.78;100733.09;5093140;28;20054;-83
2022/05/10 06:58:29;;;;;;;15.88;3.28;;;;;;;21.29;43.08;100735.72;5093545;28;20024;-88
2022/05/10 07:00:54;;;;;;;11.30;2.30;;;;;;;21.46;42.80;100721.19;5093256;28;20377;-79
2022/05/10 07:03:28;;;;;;;18.75;4.97;;;;;;;21.56;42.59;100726.00;5093023;28;20032;-78
2022/05/10 07:05:55;;;;;;;21.65;4.63;;;;;;;21.63;42.43;100724.44;5079459;28;20012;-79
2022/05/10 07:08:21;;;;;;;10.50;3.30;;;;;;;21.63;42.34;100718.88;5071856;28;20029;-82
2022/05/10 07:10:47;;;;;;;15.63;3.63;;;;;;;21.81;42.12;100720.56;5062163;28;20017;-80
2022/05/10 07:13:17;;;;;;;11.45;3.35;;;;;;;21.70;42.44;100730.84;5062108;28;20037;-81
2022/05/10 07:15:46;;;;;;;22.83;4.30;;;;;;;21.81;42.08;100725.34;5065615;28;20020;-83
2022/05/10 07:18:13;;;;;;;12.52;2.78;;;;;;;22.06;41.71;100722.66;5061066;28;20107;-80
2022/05/10 07:20:39;;;;;;;14.95;3.20;;;;;;;22.03;41.42;100720.66;5062607;28;20035;-80
2022/05/10 07:23:05;;;;;;;13.20;3.25;;;;;;;22.08;41.65;100732.25;5061595;28;20025;-87
2022/05/10 07:25:31;;;;;;;13.40;4.18;;;;;;;22.10;41.47;100713.16;5062073;28;20112;-87
2022/05/10 07:27:57;;;;;;;16.70;3.67;;;;;;;22.12;41.57;100713.56;5063299;28;20045;-80
2022/05/10 07:30:25;;;;;;;15.45;3.22;;;;;;;22.09;41.46;100731.06;5066491;28;20031;-79
2022/05/10 07:32:51;;;;;;;15.55;3.70;;;;;;;21.85;41.71;100709.47;5063397;28;20063;-88
2022/05/10 07:38:04;;;;;;;9.60;2.88;;;;;;;21.99;41.33;100731.78;5093379;28;20398;-79
2022/05/10 07:40:30;;;;;;;13.30;3.53;;;;;;;22.32;40.84;100724.38;5092956;28;20111;-80
2022/05/10 07:42:55;;;;;;;16.13;3.20;;;;;;;22.48;40.33;100724.03;5093185;28;20028;-83
2022/05/10 07:45:21;;;;;;;17.35;3.97;;;;;;;22.55;40.08;100724.84;5091861;28;20058;-80
2022/05/10 07:47:47;;;;;;;13.20;3.03;;;;;;;22.46;40.37;100723.63;5093351;28;20024;-91
2022/05/10 07:50:12;;;;;;;11.60;3.25;;;;;;;22.41;40.71;100730.38;5092088;28;20124;-80
2022/05/10 07:52:41;;;;;;;8.43;2.72;;;;;;;22.18;40.79;100715.97;5092913;28;20371;-90
2022/05/10 07:55:08;;;;;;;9.13;2.13;;;;;;;22.35;40.55;100729.94;5093303;28;20025;-80
2022/05/10 07:57:34;;;;;;;15.35;4.00;;;;;;;22.74;39.68;100732.00;5092743;28;20024;-79
2022/05/10 08:00:00;;;;;;;10.57;2.38;;;;;;;22.68;40.16;100733.63;5092469;28;20032;-80
2022/05/10 08:02:25;;;;;;;13.25;2.90;;;;;;;22.55;39.96;100722.03;5092576;28;20038;-89
2022/05/10 08:04:51;;;;;;;12.32;2.70;;;;;;;22.13;40.93;100725.50;5092573;28;20028;-79
2022/05/10 08:07:16;;;;;;;12.93;2.47;;;;;;;22.41;40.36;100731.16;5092849;28;20526;-79
2022/05/10 08:09:42;;;;;;;14.52;4.68;;;;;;;22.69;39.82;100736.00;5081943;28;20054;-80
2022/05/10 08:12:09;;;;;;;15.52;3.92;;;;;;;22.51;39.83;100742.72;5062572;28;20108;-79
2022/05/10 08:14:35;;;;;;;28.30;4.90;;;;;;;22.68;39.65;100734.41;5061015;28;20096;-79
2022/05/10 08:17:00;;;;;;;14.23;3.53;;;;;;;22.95;38.91;100737.63;5063200;28;20051;-79
2022/05/10 08:19:26;;;;;;;20.63;3.92;;;;;;;22.93;39.03;100739.22;5060739;28;20391;-78
2022/05/10 08:21:55;;;;;;;10.82;2.67;;;;;;;22.94;38.96;100736.03;5063410;28;20028;-78
2022/05/10 08:24:22;;;;;;;8.90;2.57;;;;;;;23.20;38.19;100740.44;5066588;28;20040;-78
2022/05/10 08:26:48;;;;;;;9.95;3.13;;;;;;;23.02;39.08;100742.41;5063177;28;20774;-78
2022/05/10 08:29:13;;;;;;;8.30;2.28;;;;;;;22.84;38.92;100731.25;5067000;28;20024;-79
2022/05/10 08:31:40;;;;;;;12.63;2.75;;;;;;;23.10;38.63;100746.78;5075098;28;20063;-78
2022/05/10 08:34:06;;;;;;;10.02;2.53;;;;;;;23.02;38.86;100742.41;5075618;28;20025;-78
2022/05/10 08:36:32;;;;;;;10.10;3.00;;;;;;;22.95;38.29;100753.56;5075687;28;20028;-78
2022/05/10 08:38:57;;;;;;;7.32;2.40;;;;;;;23.26;37.71;100741.59;5075224;28;20020;-78
2022/05/10 08:41:29;;;;;;;12.05;3.97;;;;;;;22.87;37.56;100746.38;5075518;28;20021;-86
2022/05/10 08:43:56;;;;;;;20.63;3.58;;;;;;;22.69;37.66;100758.28;5073258;28;20474;-79
2022/05/10 08:46:30;;;;;;;8.07;1.98;;;;;;;23.02;37.80;100761.91;5073695;28;20497;-79
2022/05/10 08:49:01;;;;;;;7.45;1.92;;;;;;;23.12;37.32;100755.53;5075030;28;20024;-78
2022/05/10 08:51:27;;;;;;;11.57;2.95;;;;;;;23.57;37.08;100744.75;5072812;28;20652;-79
2022/05/10 08:53:53;;;;;;;8.45;2.55;;;;;;;23.59;36.83;100745.16;5073367;28;20111;-79
2022/05/10 08:56:24;;;;;;;9.82;2.22;;;;;;;23.55;36.88;100749.94;5074014;28;20031;-83
2022/05/10 08:59:09;;;;;;;12.68;2.70;;;;;;;23.10;37.32;100749.56;5074908;28;20460;-79
2022/05/10 09:01:45;;;;;;;11.27;3.22;;;;;;;23.14;37.06;100742.03;5075089;28;20025;-79
2022/05/10 09:04:19;;;;;;;14.07;3.85;;;;;;;23.15;37.50;100754.75;5075037;28;20104;-79
2022/05/10 09:06:50;;;;;;;11.63;2.83;;;;;;;22.98;37.69;100758.34;5074834;28;20147;-79
2022/05/10 09:09:32;;;;;;;8.32;3.10;;;;;;;23.01;37.55;100763.13;5074749;28;20028;-78
2022/05/10 09:12:18;;;;;;;7.70;2.08;;;;;;;22.90;37.68;100762.31;5075076;28;20429;-79
2022/05/10 09:14:59;;;;;;;7.88;2.60;;;;;;;23.60;36.68;100755.16;5074930;28;20471;-79
2022/05/10 09:17:30;;;;;;;8.30;2.13;;;;;;;23.67;36.41;100752.34;5074564;28;20406;-79
2022/05/10 09:19:56;;;;;;;12.52;2.97;;;;;;;23.39;36.73;100774.66;5074378;28;20035;-79
2022/05/10 09:22:52;;;;;;;7.97;1.90;;;;;;;23.17;35.99;100765.50;5073290;28;20021;-79
2022/05/10 09:25:34;;;;;;;10.65;2.38;;;;;;;23.98;35.19;100775.78;5074513;28;20074;-79
2022/05/10 09:28:11;;;;;;;7.72;2.05;;;;;;;23.78;36.35;100772.63;5074465;28;20055;-79
2022/05/10 09:30:36;;;;;;;8.88;1.63;;;;;;;24.12;35.82;100783.31;5074591;28;20020;-79
2022/05/10 09:36:00;;;;;;;9.27;2.50;;;;;;;23.32;37.81;100805.34;5073456;28;20506;-79
2022/05/10 09:38:26;;;;;;;8.38;2.63;;;;;;;23.15;37.96;100799.34;5074287;28;20029;-79
2022/05/10 09:40:52;;;;;;;11.23;2.33;;;;;;;23.09;38.36;100802.94;5074249;28;20082;-79
2022/05/10 09:43:25;;;;;;;7.82;1.50;;;;;;;23.10;38.89;100805.31;5074487;28;20429;-78
2022/05/10 09:46:34;;;;;;;4.18;1.15;;;;;;;22.76;40.14;100806.84;5074267;28;20021;-78
2022/05/10 09:49:01;;;;;;;6.72;1.80;;;;;;;22.73;40.15;100810.41;5070081;28;20048;-79
2022/05/10 09:51:41;;;;;;;5.00;1.50;;;;;;;23.08;39.38;100806.91;5072406;28;20028;-87
2022/05/10 09:54:40;;;;;;;6.75;1.98;;;;;;;22.95;39.61;100803.72;5074088;28;20029;-79
2022/05/10 09:57:13;;;;;;;6.82;2.13;;;;;;;23.12;39.37;100797.34;5073951;28;20597;-79
2022/05/10 09:59:46;;;;;;;4.20;1.27;;;;;;;23.21;39.46;100786.63;5069053;28;20033;-79
2022/05/10 10:02:29;;;;;;;6.68;1.60;;;;;;;23.05;39.25;100786.22;5069896;28;20036;-81
2022/05/10 10:04:55;;;;;;;6.15;1.92;;;;;;;22.36;40.39;100792.78;5073867;28;20493;-79
2022/05/10 10:07:28;;;;;;;8.38;2.10;;;;;;;22.63;40.10;100792.47;5073670;28;20024;-78
2022/05/10 10:10:16;;;;;;;5.15;1.60;;;;;;;22.84;39.55;100772.22;5073584;28;20031;-78
2022/05/10 10:12:44;;;;;;;5.47;1.80;;;;;;;22.46;39.37;100785.66;5073503;28;20082;-79
2022/05/10 10:15:34;;;;;;;6.90;2.15;;;;;;;22.81;38.98;100779.38;5073382;28;20033;-80
2022/05/10 10:18:04;;;;;;;20.45;3.80;;;;;;;22.52;39.57;100783.28;5072300;28;20035;-78
2022/05/10 10:20:55;;;;;;;27.92;4.45;;;;;;;22.42;38.76;100782.84;5071886;28;20028;-78
2022/05/10 10:23:36;;;;;;;10.88;2.40;;;;;;;22.57;39.61;100785.69;5065683;28;20380;-78
2022/05/10 10:26:14;;;;;;;7.55;1.85;;;;;;;23.21;38.30;100772.69;5073191;28;20028;-78
2022/05/10 10:29:14;;;;;;;29.08;5.30;;;;;;;22.84;38.97;100778.59;5073167;28;20041;-78
2022/05/10 10:31:52;;;;;;;8.98;2.35;;;;;;;23.13;38.21;100779.47;5039260;28;20406;-78
2022/05/10 10:34:32;;;;;;;5.82;2.33;;;;;;;23.50;37.98;100778.22;5071686;28;20166;-77
2022/05/10 10:37:07;;;;;;;13.60;2.70;;;;;;;23.43;38.03;100784.63;5071954;28;20394;-77
2022/05/10 10:40:12;;;;;;;9.43;1.88;;;;;;;23.38;37.46;100781.44;5073136;28;20117;-77
2022/05/10 10:42:56;;;;;;;14.95;3.25;;;;;;;23.70;37.00;100775.84;5056798;28;20601;-79
2022/05/10 10:45:36;;;;;;;7.20;2.33;;;;;;;23.93;36.53;100789.34;5067208;28;20029;-80
2022/05/10 10:48:49;;;;;;;6.57;1.70;;;;;;;24.05;36.67;100784.13;5072811;28;20553;-79
2022/05/10 10:51:15;;;;;;;8.70;2.38;;;;;;;24.50;36.13;100780.78;5059958;28;20036;-78
2022/05/10 10:53:44;;;;;;;11.40;2.95;;;;;;;24.37;35.86;100776.84;5073184;28;20029;-78
2022/05/10 10:56:15;;;;;;;9.57;2.67;;;;;;;24.14;36.05;100788.47;5071511;28;20519;-79
2022/05/10 10:59:02;;;;;;;7.43;1.88;;;;;;;23.80;35.95;100783.38;5072920;28;20112;-79
2022/05/10 11:01:53;;;;;;;6.88;1.90;;;;;;;24.22;35.14;100790.84;5072878;28;20016;-79
2022/05/10 11:04:42;;;;;;;15.68;2.97;;;;;;;24.47;34.97;100790.75;5071673;28;20118;-88
2022/05/10 11:07:54;;;;;;;11.65;2.63;;;;;;;24.28;34.82;100788.44;5073006;28;20103;-79
2022/05/10 11:11:09;;;;;;;6.78;1.98;;;;;;;24.62;34.98;100791.47;5068686;28;20123;-88
2022/05/10 11:13:47;;;;;;;15.68;4.13;;;;;;;24.83;34.74;100787.75;5068807;28;20028;-78
2022/05/10 11:16:34;;;;;;;10.52;2.47;;;;;;;24.95;34.72;100792.88;5072803;28;20386;-78
2022/05/10 11:19:14;;;;;;;8.85;2.50;;;;;;;25.21;34.19;100799.09;5071343;28;20054;-78
2022/05/10 11:22:03;;;;;;;9.57;2.40;;;;;;;25.93;34.35;100777.66;5072496;28;20360;-77
2022/05/10 11:24:58;;;;;;;8.75;2.05;;;;;;;25.78;33.60;100770.63;5072689;28;20059;-84
2022/05/10 11:27:44;;;;;;;10.40;2.10;;;;;;;25.90;33.26;100778.47;5072420;28;20051;-88
2022/05/10 11:30:25;;;;;;;8.13;2.83;;;;;;;25.71;32.54;100799.44;5071273;28;20044;-77
2022/05/10 11:33:11;;;;;;;9.85;2.22;;;;;;;25.57;32.47;100800.38;5072659;28;20424;-77
2022/05/10 11:35:45;;;;;;;6.20;2.15;;;;;;;25.85;31.45;100779.75;5072422;28;20036;-77
2022/05/10 11:38:22;;;;;;;14.18;3.47;;;;;;;25.79;31.04;100783.41;5071173;28;20036;-87
2022/05/10 11:41:05;;;;;;;7.75;1.98;;;;;;;26.24;30.76;100782.06;5072398;28;20035;-78
2022/05/10 11:43:52;;;;;;;12.45;2.95;;;;;;;25.68;31.65;100789.06;5072457;28;20032;-78
2022/05/10 11:46:36;;;;;;;10.15;2.30;;;;;;;25.54;31.92;100792.78;5072506;28;20483;-78
2022/05/10 11:49:14;;;;;;;9.60;2.40;;;;;;;25.51;31.20;100793.63;5071122;28;20060;-78
2022/05/10 11:51:58;;;;;;;6.32;1.50;;;;;;;25.76;31.44;100795.41;5072368;28;20112;-86
2022/05/10 11:54:54;;;;;;;8.20;2.20;;;;;;;25.76;31.84;100759.03;5072220;28;20029;-78
2022/05/10 11:57:22;;;;;;;11.07;1.60;;;;;;;25.97;30.74;100784.00;5072246;28;20028;-77
2022/05/10 11:59:48;;;;;;;7.28;3.50;;;;;;;26.12;30.16;100779.81;5075496;28;20036;-87